sensor_id;sensor_type;location;lat;lon;timestamp;P1;durP1;ratioP1;P2;durP2;ratioP2
11620;SDS011;5866;49.094;11.900;2023-01-04T00:01:04;119.53;;;30.53;;
11620;SDS011;5866;49.094;11.900;2023-01-04T00:03:32;144.00;;;30.33;;
11620;SDS011;5866;49.094;11.900;2023-01-04T00:06:01;250.50;;;34.40;;
11620;SDS011;5866;49.094;11.900;2023-01-04T00:08:31;241.23;;;36.47;;
11620;SDS011;5866;49.094;11.900;2023-01-04T00:10:59;244.23;;;35.63;;
11620;SDS011;5866;49.094;11.900;2023-01-04T00:13:26;168.97;;;30.50;;
11620;SDS011;5866;49.094;11.900;2023-01-04T00:15:54;206.60;;;32.20;;
11620;SDS011;5866;49.094;11.900;2023-01-04T00:18:27;131.80;;;27.27;;
11620;SDS011;5866;49.094;11.900;2023-01-04T00:21:04;171.23;;;29.50;;
11620;SDS011;5866;49.094;11.900;2023-01-04T00:23:32;143.10;;;29.20;;
11620;SDS011;5866;49.094;11.900;2023-01-04T00:26:00;209.37;;;31.50;;
11620;SDS011;5866;49.094;11.900;2023-01-04T00:28:28;192.50;;;29.47;;
11620;SDS011;5866;49.094;11.900;2023-01-04T00:30:55;183.97;;;27.90;;
11620;SDS011;5866;49.094;11.900;2023-01-04T00:33:23;171.33;;;25.37;;
11620;SDS011;5866;49.094;11.900;2023-01-04T00:35:51;153.33;;;26.83;;
11620;SDS011;5866;49.094;11.900;2023-01-04T00:38:19;169.53;;;27.10;;
11620;SDS011;5866;49.094;11.900;2023-01-04T00:40:47;179.90;;;31.67;;
11620;SDS011;5866;49.094;11.900;2023-01-04T00:43:14;159.97;;;30.17;;
11620;SDS011;5866;49.094;11.900;2023-01-04T00:45:42;179.63;;;31.27;;
11620;SDS011;5866;49.094;11.900;2023-01-04T00:48:09;134.67;;;28.50;;
11620;SDS011;5866;49.094;11.900;2023-01-04T00:50:37;188.73;;;30.87;;
11620;SDS011;5866;49.094;11.900;2023-01-04T00:53:06;226.13;;;30.40;;
11620;SDS011;5866;49.094;11.900;2023-01-04T00:55:33;140.33;;;27.23;;
11620;SDS011;5866;49.094;11.900;2023-01-04T00:58:01;139.10;;;26.07;;
11620;SDS011;5866;49.094;11.900;2023-01-04T01:00:28;188.87;;;23.80;;
11620;SDS011;5866;49.094;11.900;2023-01-04T01:02:56;200.00;;;24.33;;
11620;SDS011;5866;49.094;11.900;2023-01-04T01:05:24;143.43;;;22.60;;
11620;SDS011;5866;49.094;11.900;2023-01-04T01:07:52;164.93;;;21.80;;
11620;SDS011;5866;49.094;11.900;2023-01-04T01:10:21;159.40;;;21.07;;
11620;SDS011;5866;49.094;11.900;2023-01-04T01:12:48;159.87;;;22.57;;
11620;SDS011;5866;49.094;11.900;2023-01-04T01:15:16;176.37;;;24.57;;
11620;SDS011;5866;49.094;11.900;2023-01-04T01:17:43;175.30;;;22.87;;
11620;SDS011;5866;49.094;11.900;2023-01-04T01:20:11;165.27;;;23.17;;
11620;SDS011;5866;49.094;11.900;2023-01-04T01:22:39;124.93;;;21.23;;
11620;SDS011;5866;49.094;11.900;2023-01-04T01:25:06;175.50;;;23.00;;
11620;SDS011;5866;49.094;11.900;2023-01-04T01:27:35;313.70;;;29.37;;
11620;SDS011;5866;49.094;11.900;2023-01-04T01:30:03;180.00;;;23.47;;
11620;SDS011;5866;49.094;11.900;2023-01-04T01:32:32;146.73;;;23.40;;
11620;SDS011;5866;49.094;11.900;2023-01-04T01:34:59;205.00;;;23.30;;
11620;SDS011;5866;49.094;11.900;2023-01-04T01:37:27;198.63;;;24.80;;
11620;SDS011;5866;49.094;11.900;2023-01-04T01:39:54;161.30;;;20.60;;
11620;SDS011;5866;49.094;11.900;2023-01-04T01:42:22;211.73;;;22.30;;
11620;SDS011;5866;49.094;11.900;2023-01-04T01:44:58;139.13;;;19.80;;
11620;SDS011;5866;49.094;11.900;2023-01-04T01:47:29;195.90;;;22.07;;
11620;SDS011;5866;49.094;11.900;2023-01-04T01:50:04;157.87;;;19.67;;
11620;SDS011;5866;49.094;11.900;2023-01-04T01:52:41;104.17;;;17.07;;
11620;SDS011;5866;49.094;11.900;2023-01-04T01:55:09;140.37;;;20.67;;
11620;SDS011;5866;49.094;11.900;2023-01-04T01:57:38;78.57;;;19.17;;
11620;SDS011;5866;49.094;11.900;2023-01-04T02:00:13;188.47;;;25.83;;
11620;SDS011;5866;49.094;11.900;2023-01-04T02:02:44;126.43;;;20.93;;
11620;SDS011;5866;49.094;11.900;2023-01-04T02:05:21;134.27;;;21.03;;
11620;SDS011;5866;49.094;11.900;2023-01-04T02:07:50;142.57;;;24.27;;
11620;SDS011;5866;49.094;11.900;2023-01-04T02:10:18;116.77;;;23.93;;
11620;SDS011;5866;49.094;11.900;2023-01-04T02:12:46;100.47;;;22.70;;
11620;SDS011;5866;49.094;11.900;2023-01-04T02:15:18;88.20;;;25.57;;
11620;SDS011;5866;49.094;11.900;2023-01-04T02:17:47;120.63;;;27.60;;
11620;SDS011;5866;49.094;11.900;2023-01-04T02:20:35;109.77;;;29.33;;
11620;SDS011;5866;49.094;11.900;2023-01-04T02:23:20;187.37;;;30.80;;
11620;SDS011;5866;49.094;11.900;2023-01-04T02:29:19;109.53;;;19.07;;
11620;SDS011;5866;49.094;11.900;2023-01-04T02:32:13;103.60;;;17.60;;
11620;SDS011;5866;49.094;11.900;2023-01-04T02:34:51;92.77;;;18.30;;
11620;SDS011;5866;49.094;11.900;2023-01-04T02:37:27;62.60;;;18.40;;
11620;SDS011;5866;49.094;11.900;2023-01-04T02:40:04;85.07;;;20.30;;
11620;SDS011;5866;49.094;11.900;2023-01-04T02:42:39;112.80;;;24.17;;
11620;SDS011;5866;49.094;11.900;2023-01-04T02:45:40;83.37;;;20.60;;
11620;SDS011;5866;49.094;11.900;2023-01-04T02:48:12;111.50;;;22.70;;
11620;SDS011;5866;49.094;11.900;2023-01-04T02:50:57;120.10;;;25.03;;
11620;SDS011;5866;49.094;11.900;2023-01-04T02:53:27;93.73;;;24.57;;
11620;SDS011;5866;49.094;11.900;2023-01-04T02:56:01;67.10;;;21.77;;
11620;SDS011;5866;49.094;11.900;2023-01-04T02:58:51;92.57;;;24.30;;
11620;SDS011;5866;49.094;11.900;2023-01-04T03:01:33;102.00;;;23.33;;
11620;SDS011;5866;49.094;11.900;2023-01-04T03:04:29;75.87;;;21.20;;
11620;SDS011;5866;49.094;11.900;2023-01-04T03:07:24;114.50;;;22.63;;
11620;SDS011;5866;49.094;11.900;2023-01-04T03:09:57;95.87;;;20.70;;
11620;SDS011;5866;49.094;11.900;2023-01-04T03:12:32;100.80;;;21.47;;
11620;SDS011;5866;49.094;11.900;2023-01-04T03:15:08;87.33;;;22.73;;
11620;SDS011;5866;49.094;11.900;2023-01-04T03:17:42;81.67;;;23.57;;
11620;SDS011;5866;49.094;11.900;2023-01-04T03:20:15;66.10;;;27.47;;
11620;SDS011;5866;49.094;11.900;2023-01-04T03:22:45;63.70;;;28.30;;
11620;SDS011;5866;49.094;11.900;2023-01-04T03:25:36;65.53;;;26.97;;
11620;SDS011;5866;49.094;11.900;2023-01-04T03:28:23;73.27;;;36.30;;
11620;SDS011;5866;49.094;11.900;2023-01-04T03:31:13;65.20;;;47.90;;
11620;SDS011;5866;49.094;11.900;2023-01-04T03:34:17;79.67;;;31.13;;
11620;SDS011;5866;49.094;11.900;2023-01-04T03:37:08;85.90;;;35.10;;
11620;SDS011;5866;49.094;11.900;2023-01-04T03:39:48;65.43;;;33.97;;
11620;SDS011;5866;49.094;11.900;2023-01-04T03:42:44;50.27;;;29.20;;
11620;SDS011;5866;49.094;11.900;2023-01-04T03:45:36;62.77;;;28.90;;
11620;SDS011;5866;49.094;11.900;2023-01-04T03:48:27;47.47;;;25.30;;
11620;SDS011;5866;49.094;11.900;2023-01-04T03:51:02;46.60;;;26.80;;
11620;SDS011;5866;49.094;11.900;2023-01-04T03:53:43;50.20;;;28.03;;
11620;SDS011;5866;49.094;11.900;2023-01-04T03:56:15;40.07;;;22.87;;
11620;SDS011;5866;49.094;11.900;2023-01-04T03:58:47;41.07;;;20.27;;
11620;SDS011;5866;49.094;11.900;2023-01-04T04:01:16;40.70;;;17.67;;
11620;SDS011;5866;49.094;11.900;2023-01-04T04:03:45;44.70;;;19.30;;
11620;SDS011;5866;49.094;11.900;2023-01-04T04:06:31;48.03;;;22.37;;
11620;SDS011;5866;49.094;11.900;2023-01-04T04:09:18;43.50;;;17.77;;
11620;SDS011;5866;49.094;11.900;2023-01-04T04:11:46;54.80;;;28.27;;
11620;SDS011;5866;49.094;11.900;2023-01-04T04:14:13;58.63;;;27.57;;
11620;SDS011;5866;49.094;11.900;2023-01-04T04:16:41;51.37;;;22.90;;
11620;SDS011;5866;49.094;11.900;2023-01-04T04:19:09;58.53;;;19.80;;
11620;SDS011;5866;49.094;11.900;2023-01-04T04:21:37;69.30;;;32.53;;
11620;SDS011;5866;49.094;11.900;2023-01-04T04:24:04;52.97;;;27.70;;
11620;SDS011;5866;49.094;11.900;2023-01-04T04:26:34;72.27;;;25.50;;
11620;SDS011;5866;49.094;11.900;2023-01-04T04:29:01;74.13;;;24.27;;
11620;SDS011;5866;49.094;11.900;2023-01-04T04:31:29;45.70;;;18.50;;
11620;SDS011;5866;49.094;11.900;2023-01-04T04:33:57;53.60;;;27.30;;
11620;SDS011;5866;49.094;11.900;2023-01-04T04:36:24;48.40;;;21.03;;
11620;SDS011;5866;49.094;11.900;2023-01-04T04:38:52;55.70;;;21.07;;
11620;SDS011;5866;49.094;11.900;2023-01-04T04:41:19;43.93;;;21.13;;
11620;SDS011;5866;49.094;11.900;2023-01-04T04:44:05;55.40;;;27.20;;
11620;SDS011;5866;49.094;11.900;2023-01-04T04:46:34;50.23;;;24.87;;
11620;SDS011;5866;49.094;11.900;2023-01-04T04:49:01;49.87;;;25.33;;
11620;SDS011;5866;49.094;11.900;2023-01-04T04:51:29;45.33;;;25.77;;
11620;SDS011;5866;49.094;11.900;2023-01-04T04:53:57;56.43;;;25.10;;
11620;SDS011;5866;49.094;11.900;2023-01-04T04:56:24;69.20;;;33.00;;
11620;SDS011;5866;49.094;11.900;2023-01-04T04:58:52;64.50;;;43.43;;
11620;SDS011;5866;49.094;11.900;2023-01-04T05:01:21;70.80;;;42.90;;
11620;SDS011;5866;49.094;11.900;2023-01-04T05:03:49;62.97;;;54.30;;
11620;SDS011;5866;49.094;11.900;2023-01-04T05:06:17;80.37;;;61.60;;
11620;SDS011;5866;49.094;11.900;2023-01-04T05:08:44;75.17;;;59.60;;
11620;SDS011;5866;49.094;11.900;2023-01-04T05:11:12;69.93;;;54.27;;
11620;SDS011;5866;49.094;11.900;2023-01-04T05:13:40;79.67;;;63.30;;
11620;SDS011;5866;49.094;11.900;2023-01-04T05:16:08;81.57;;;69.93;;
11620;SDS011;5866;49.094;11.900;2023-01-04T05:18:37;79.97;;;67.60;;
11620;SDS011;5866;49.094;11.900;2023-01-04T05:21:05;83.33;;;71.23;;
11620;SDS011;5866;49.094;11.900;2023-01-04T05:23:32;82.13;;;64.70;;
11620;SDS011;5866;49.094;11.900;2023-01-04T05:26:00;79.73;;;59.27;;
11620;SDS011;5866;49.094;11.900;2023-01-04T05:28:28;77.70;;;64.43;;
11620;SDS011;5866;49.094;11.900;2023-01-04T05:30:56;85.97;;;76.93;;
11620;SDS011;5866;49.094;11.900;2023-01-04T05:33:23;86.70;;;76.60;;
11620;SDS011;5866;49.094;11.900;2023-01-04T05:35:54;79.50;;;66.03;;
11620;SDS011;5866;49.094;11.900;2023-01-04T05:38:23;81.63;;;72.70;;
11620;SDS011;5866;49.094;11.900;2023-01-04T05:40:52;75.50;;;67.53;;
11620;SDS011;5866;49.094;11.900;2023-01-04T05:43:20;80.23;;;71.47;;
11620;SDS011;5866;49.094;11.900;2023-01-04T05:45:49;83.43;;;74.63;;
11620;SDS011;5866;49.094;11.900;2023-01-04T05:48:18;84.37;;;75.57;;
11620;SDS011;5866;49.094;11.900;2023-01-04T05:50:47;87.00;;;77.67;;
11620;SDS011;5866;49.094;11.900;2023-01-04T05:53:16;83.13;;;73.27;;
11620;SDS011;5866;49.094;11.900;2023-01-04T05:55:44;74.07;;;66.23;;
11620;SDS011;5866;49.094;11.900;2023-01-04T05:58:13;102.50;;;91.50;;
11620;SDS011;5866;49.094;11.900;2023-01-04T06:00:41;89.63;;;80.13;;
11620;SDS011;5866;49.094;11.900;2023-01-04T06:03:09;86.57;;;78.27;;
11620;SDS011;5866;49.094;11.900;2023-01-04T06:05:36;87.10;;;75.50;;
11620;SDS011;5866;49.094;11.900;2023-01-04T06:08:04;100.57;;;90.30;;
11620;SDS011;5866;49.094;11.900;2023-01-04T06:10:34;89.53;;;76.47;;
11620;SDS011;5866;49.094;11.900;2023-01-04T06:13:01;80.27;;;71.47;;
11620;SDS011;5866;49.094;11.900;2023-01-04T06:15:29;82.37;;;72.93;;
11620;SDS011;5866;49.094;11.900;2023-01-04T06:17:56;81.20;;;70.00;;
11620;SDS011;5866;49.094;11.900;2023-01-04T06:20:24;82.13;;;70.30;;
11620;SDS011;5866;49.094;11.900;2023-01-04T06:22:51;90.13;;;77.40;;
11620;SDS011;5866;49.094;11.900;2023-01-04T06:25:19;98.73;;;88.30;;
11620;SDS011;5866;49.094;11.900;2023-01-04T06:27:48;91.67;;;82.10;;
11620;SDS011;5866;49.094;11.900;2023-01-04T06:30:15;96.27;;;85.87;;
11620;SDS011;5866;49.094;11.900;2023-01-04T06:32:43;90.57;;;80.90;;
11620;SDS011;5866;49.094;11.900;2023-01-04T06:35:10;86.07;;;73.77;;
11620;SDS011;5866;49.094;11.900;2023-01-04T06:37:38;84.73;;;75.57;;
11620;SDS011;5866;49.094;11.900;2023-01-04T06:40:06;83.73;;;75.07;;
11620;SDS011;5866;49.094;11.900;2023-01-04T06:42:35;83.00;;;73.53;;
11620;SDS011;5866;49.094;11.900;2023-01-04T06:45:13;82.20;;;73.30;;
11620;SDS011;5866;49.094;11.900;2023-01-04T06:47:41;91.93;;;82.37;;
11620;SDS011;5866;49.094;11.900;2023-01-04T06:50:10;98.43;;;89.03;;
11620;SDS011;5866;49.094;11.900;2023-01-04T06:52:37;77.73;;;65.83;;
11620;SDS011;5866;49.094;11.900;2023-01-04T06:55:05;80.43;;;58.87;;
11620;SDS011;5866;49.094;11.900;2023-01-04T06:57:34;68.30;;;47.37;;
11620;SDS011;5866;49.094;11.900;2023-01-04T07:00:02;73.97;;;62.63;;
11620;SDS011;5866;49.094;11.900;2023-01-04T07:02:32;76.27;;;63.67;;
11620;SDS011;5866;49.094;11.900;2023-01-04T07:05:00;75.63;;;67.63;;
11620;SDS011;5866;49.094;11.900;2023-01-04T07:07:28;65.50;;;46.57;;
11620;SDS011;5866;49.094;11.900;2023-01-04T07:09:56;69.27;;;53.00;;
11620;SDS011;5866;49.094;11.900;2023-01-04T07:12:30;71.23;;;56.93;;
11620;SDS011;5866;49.094;11.900;2023-01-04T07:14:58;73.70;;;59.10;;
11620;SDS011;5866;49.094;11.900;2023-01-04T07:17:26;74.30;;;61.43;;
11620;SDS011;5866;49.094;11.900;2023-01-04T07:19:56;86.00;;;76.40;;
11620;SDS011;5866;49.094;11.900;2023-01-04T07:22:24;82.60;;;74.30;;
11620;SDS011;5866;49.094;11.900;2023-01-04T07:24:51;94.27;;;84.17;;
11620;SDS011;5866;49.094;11.900;2023-01-04T07:27:19;92.07;;;82.93;;
11620;SDS011;5866;49.094;11.900;2023-01-04T07:29:46;90.40;;;81.10;;
11620;SDS011;5866;49.094;11.900;2023-01-04T07:32:14;98.00;;;88.20;;
11620;SDS011;5866;49.094;11.900;2023-01-04T07:34:42;94.70;;;79.83;;
11620;SDS011;5866;49.094;11.900;2023-01-04T07:37:11;100.37;;;90.40;;
11620;SDS011;5866;49.094;11.900;2023-01-04T07:39:40;69.27;;;48.30;;
11620;SDS011;5866;49.094;11.900;2023-01-04T07:42:09;88.20;;;76.03;;
11620;SDS011;5866;49.094;11.900;2023-01-04T07:44:36;100.63;;;90.10;;
11620;SDS011;5866;49.094;11.900;2023-01-04T07:47:04;96.47;;;79.60;;
11620;SDS011;5866;49.094;11.900;2023-01-04T07:49:32;92.03;;;82.07;;
11620;SDS011;5866;49.094;11.900;2023-01-04T07:51:59;102.67;;;91.90;;
11620;SDS011;5866;49.094;11.900;2023-01-04T07:54:28;91.80;;;80.43;;
11620;SDS011;5866;49.094;11.900;2023-01-04T07:56:56;77.77;;;64.27;;
11620;SDS011;5866;49.094;11.900;2023-01-04T07:59:23;88.63;;;74.47;;
11620;SDS011;5866;49.094;11.900;2023-01-04T08:01:51;80.23;;;65.73;;
11620;SDS011;5866;49.094;11.900;2023-01-04T08:04:20;84.63;;;75.43;;
11620;SDS011;5866;49.094;11.900;2023-01-04T08:06:56;93.73;;;83.47;;
11620;SDS011;5866;49.094;11.900;2023-01-04T08:09:23;106.23;;;95.03;;
11620;SDS011;5866;49.094;11.900;2023-01-04T08:11:52;82.77;;;72.60;;
11620;SDS011;5866;49.094;11.900;2023-01-04T08:14:20;77.03;;;52.17;;
11620;SDS011;5866;49.094;11.900;2023-01-04T08:16:48;64.83;;;32.20;;
11620;SDS011;5866;49.094;11.900;2023-01-04T08:19:16;68.13;;;29.40;;
11620;SDS011;5866;49.094;11.900;2023-01-04T08:21:45;65.10;;;28.23;;
11620;SDS011;5866;49.094;11.900;2023-01-04T08:24:15;73.80;;;34.10;;
11620;SDS011;5866;49.094;11.900;2023-01-04T08:26:44;71.17;;;34.90;;
11620;SDS011;5866;49.094;11.900;2023-01-04T08:29:14;74.53;;;34.63;;
11620;SDS011;5866;49.094;11.900;2023-01-04T08:31:41;68.27;;;35.33;;
11620;SDS011;5866;49.094;11.900;2023-01-04T08:34:09;66.07;;;33.77;;
11620;SDS011;5866;49.094;11.900;2023-01-04T08:36:43;65.90;;;28.40;;
11620;SDS011;5866;49.094;11.900;2023-01-04T08:39:13;76.70;;;30.73;;
11620;SDS011;5866;49.094;11.900;2023-01-04T08:41:40;70.43;;;30.40;;
11620;SDS011;5866;49.094;11.900;2023-01-04T08:44:29;67.93;;;30.07;;
11620;SDS011;5866;49.094;11.900;2023-01-04T08:46:56;65.90;;;31.80;;
11620;SDS011;5866;49.094;11.900;2023-01-04T08:49:24;72.57;;;32.47;;
11620;SDS011;5866;49.094;11.900;2023-01-04T08:51:52;75.50;;;34.37;;
11620;SDS011;5866;49.094;11.900;2023-01-04T08:54:19;68.63;;;35.13;;
11620;SDS011;5866;49.094;11.900;2023-01-04T08:56:48;70.50;;;38.77;;
11620;SDS011;5866;49.094;11.900;2023-01-04T08:59:15;68.37;;;35.07;;
11620;SDS011;5866;49.094;11.900;2023-01-04T09:01:44;72.93;;;37.73;;
11620;SDS011;5866;49.094;11.900;2023-01-04T09:04:12;72.20;;;42.37;;
11620;SDS011;5866;49.094;11.900;2023-01-04T09:06:39;70.53;;;41.93;;
11620;SDS011;5866;49.094;11.900;2023-01-04T09:09:07;68.00;;;40.27;;
11620;SDS011;5866;49.094;11.900;2023-01-04T09:11:36;64.73;;;37.50;;
11620;SDS011;5866;49.094;11.900;2023-01-04T09:14:04;58.20;;;30.57;;
11620;SDS011;5866;49.094;11.900;2023-01-04T09:16:35;57.47;;;31.83;;
11620;SDS011;5866;49.094;11.900;2023-01-04T09:19:05;53.67;;;29.53;;
11620;SDS011;5866;49.094;11.900;2023-01-04T09:21:33;60.53;;;31.47;;
11620;SDS011;5866;49.094;11.900;2023-01-04T09:24:01;54.70;;;27.03;;
11620;SDS011;5866;49.094;11.900;2023-01-04T09:26:29;56.30;;;29.60;;
11620;SDS011;5866;49.094;11.900;2023-01-04T09:28:56;55.67;;;30.53;;
11620;SDS011;5866;49.094;11.900;2023-01-04T09:31:25;58.77;;;31.03;;
11620;SDS011;5866;49.094;11.900;2023-01-04T09:33:54;54.20;;;30.23;;
11620;SDS011;5866;49.094;11.900;2023-01-04T09:36:43;55.10;;;29.63;;
11620;SDS011;5866;49.094;11.900;2023-01-04T09:39:11;54.87;;;30.43;;
11620;SDS011;5866;49.094;11.900;2023-01-04T09:41:49;54.00;;;33.10;;
11620;SDS011;5866;49.094;11.900;2023-01-04T09:44:25;50.13;;;28.30;;
11620;SDS011;5866;49.094;11.900;2023-01-04T09:47:20;52.93;;;28.00;;
11620;SDS011;5866;49.094;11.900;2023-01-04T09:49:56;52.47;;;29.60;;
11620;SDS011;5866;49.094;11.900;2023-01-04T09:52:35;49.83;;;25.67;;
11620;SDS011;5866;49.094;11.900;2023-01-04T09:55:11;59.67;;;31.10;;
11620;SDS011;5866;49.094;11.900;2023-01-04T09:58:05;58.57;;;30.53;;
11620;SDS011;5866;49.094;11.900;2023-01-04T10:00:41;51.93;;;31.60;;
11620;SDS011;5866;49.094;11.900;2023-01-04T10:03:12;51.87;;;29.77;;
11620;SDS011;5866;49.094;11.900;2023-01-04T10:05:44;49.90;;;28.50;;
11620;SDS011;5866;49.094;11.900;2023-01-04T10:08:14;49.47;;;28.33;;
11620;SDS011;5866;49.094;11.900;2023-01-04T10:10:47;43.17;;;27.00;;
11620;SDS011;5866;49.094;11.900;2023-01-04T10:13:21;44.53;;;29.03;;
11620;SDS011;5866;49.094;11.900;2023-01-04T10:15:58;51.50;;;31.30;;
11620;SDS011;5866;49.094;11.900;2023-01-04T10:18:36;45.17;;;27.87;;
11620;SDS011;5866;49.094;11.900;2023-01-04T10:21:36;43.03;;;28.47;;
11620;SDS011;5866;49.094;11.900;2023-01-04T10:24:17;48.00;;;28.23;;
11620;SDS011;5866;49.094;11.900;2023-01-04T10:26:58;44.53;;;31.47;;
11620;SDS011;5866;49.094;11.900;2023-01-04T10:29:37;48.77;;;33.73;;
11620;SDS011;5866;49.094;11.900;2023-01-04T10:32:12;46.47;;;31.67;;
11620;SDS011;5866;49.094;11.900;2023-01-04T10:34:46;53.90;;;36.87;;
11620;SDS011;5866;49.094;11.900;2023-01-04T10:37:15;47.97;;;31.73;;
11620;SDS011;5866;49.094;11.900;2023-01-04T10:39:47;49.30;;;34.60;;
11620;SDS011;5866;49.094;11.900;2023-01-04T10:42:18;45.50;;;33.17;;
11620;SDS011;5866;49.094;11.900;2023-01-04T10:45:01;46.53;;;33.33;;
11620;SDS011;5866;49.094;11.900;2023-01-04T10:47:42;47.57;;;37.70;;
11620;SDS011;5866;49.094;11.900;2023-01-04T10:50:21;48.77;;;36.13;;
11620;SDS011;5866;49.094;11.900;2023-01-04T10:52:54;52.27;;;36.03;;
11620;SDS011;5866;49.094;11.900;2023-01-04T10:55:30;54.37;;;41.53;;
11620;SDS011;5866;49.094;11.900;2023-01-04T10:58:26;52.10;;;42.33;;
11620;SDS011;5866;49.094;11.900;2023-01-04T11:00:59;47.60;;;40.03;;
11620;SDS011;5866;49.094;11.900;2023-01-04T11:03:34;46.10;;;35.83;;
11620;SDS011;5866;49.094;11.900;2023-01-04T11:06:07;43.77;;;30.00;;
11620;SDS011;5866;49.094;11.900;2023-01-04T11:08:41;42.77;;;31.70;;
11620;SDS011;5866;49.094;11.900;2023-01-04T11:11:16;42.87;;;30.33;;
11620;SDS011;5866;49.094;11.900;2023-01-04T11:13:47;41.73;;;30.63;;
11620;SDS011;5866;49.094;11.900;2023-01-04T11:16:15;38.43;;;31.67;;
11620;SDS011;5866;49.094;11.900;2023-01-04T11:18:43;40.67;;;32.20;;
11620;SDS011;5866;49.094;11.900;2023-01-04T11:21:16;46.07;;;35.43;;
11620;SDS011;5866;49.094;11.900;2023-01-04T11:23:46;48.00;;;36.00;;
11620;SDS011;5866;49.094;11.900;2023-01-04T11:26:16;39.47;;;31.40;;
11620;SDS011;5866;49.094;11.900;2023-01-04T11:28:48;43.67;;;33.40;;
11620;SDS011;5866;49.094;11.900;2023-01-04T11:31:20;42.43;;;33.03;;
11620;SDS011;5866;49.094;11.900;2023-01-04T11:33:53;45.87;;;41.03;;
11620;SDS011;5866;49.094;11.900;2023-01-04T11:36:32;44.13;;;35.07;;
11620;SDS011;5866;49.094;11.900;2023-01-04T11:39:03;39.90;;;33.27;;
11620;SDS011;5866;49.094;11.900;2023-01-04T11:41:33;35.30;;;31.73;;
11620;SDS011;5866;49.094;11.900;2023-01-04T11:44:02;36.97;;;31.97;;
11620;SDS011;5866;49.094;11.900;2023-01-04T11:46:31;35.87;;;31.70;;
11620;SDS011;5866;49.094;11.900;2023-01-04T11:49:00;43.10;;;39.13;;
11620;SDS011;5866;49.094;11.900;2023-01-04T11:51:35;38.00;;;29.30;;
11620;SDS011;5866;49.094;11.900;2023-01-04T11:54:15;34.27;;;30.70;;
11620;SDS011;5866;49.094;11.900;2023-01-04T11:56:59;39.30;;;35.33;;
11620;SDS011;5866;49.094;11.900;2023-01-04T11:59:36;43.47;;;39.67;;
11620;SDS011;5866;49.094;11.900;2023-01-04T12:02:17;34.00;;;30.33;;
11620;SDS011;5866;49.094;11.900;2023-01-04T12:05:11;37.73;;;34.07;;
11620;SDS011;5866;49.094;11.900;2023-01-04T12:07:53;34.87;;;31.30;;
11620;SDS011;5866;49.094;11.900;2023-01-04T12:10:22;42.93;;;39.20;;
11620;SDS011;5866;49.094;11.900;2023-01-04T12:12:54;35.27;;;31.67;;
11620;SDS011;5866;49.094;11.900;2023-01-04T12:15:25;41.17;;;37.63;;
11620;SDS011;5866;49.094;11.900;2023-01-04T12:17:58;36.00;;;33.07;;
11620;SDS011;5866;49.094;11.900;2023-01-04T12:20:30;37.83;;;35.00;;
11620;SDS011;5866;49.094;11.900;2023-01-04T12:22:58;43.00;;;39.60;;
11620;SDS011;5866;49.094;11.900;2023-01-04T12:25:29;39.67;;;36.33;;
11620;SDS011;5866;49.094;11.900;2023-01-04T12:28:02;36.20;;;32.93;;
11620;SDS011;5866;49.094;11.900;2023-01-04T12:30:35;37.03;;;34.30;;
11620;SDS011;5866;49.094;11.900;2023-01-04T12:36:06;14.90;;;13.37;;
11620;SDS011;5866;49.094;11.900;2023-01-04T12:42:07;15.10;;;13.80;;
11620;SDS011;5866;49.094;11.900;2023-01-04T12:47:48;22.03;;;20.63;;
11620;SDS011;5866;49.094;11.900;2023-01-04T12:53:59;20.37;;;19.07;;
11620;SDS011;5866;49.094;11.900;2023-01-04T12:59:34;16.17;;;15.07;;
11620;SDS011;5866;49.094;11.900;2023-01-04T13:02:17;9.40;;;8.23;;
11620;SDS011;5866;49.094;11.900;2023-01-04T13:04:48;10.70;;;9.90;;
11620;SDS011;5866;49.094;11.900;2023-01-04T13:07:39;10.73;;;9.93;;
11620;SDS011;5866;49.094;11.900;2023-01-04T13:10:18;7.87;;;7.23;;
11620;SDS011;5866;49.094;11.900;2023-01-04T13:12:53;6.70;;;6.17;;
11620;SDS011;5866;49.094;11.900;2023-01-04T13:15:56;6.90;;;5.37;;
11620;SDS011;5866;49.094;11.900;2023-01-04T13:18:33;7.30;;;6.57;;
11620;SDS011;5866;49.094;11.900;2023-01-04T13:21:08;8.67;;;8.07;;
11620;SDS011;5866;49.094;11.900;2023-01-04T13:23:39;9.23;;;8.57;;
11620;SDS011;5866;49.094;11.900;2023-01-04T13:29:06;7.68;;;7.10;;
11620;SDS011;5866;49.094;11.900;2023-01-04T13:31:44;8.00;;;6.68;;
11620;SDS011;5866;49.094;11.900;2023-01-04T13:34:15;7.67;;;7.13;;
11620;SDS011;5866;49.094;11.900;2023-01-04T13:36:55;9.30;;;8.70;;
11620;SDS011;5866;49.094;11.900;2023-01-04T13:39:28;9.47;;;8.77;;
11620;SDS011;5866;49.094;11.900;2023-01-04T13:41:56;6.27;;;5.77;;
11620;SDS011;5866;49.094;11.900;2023-01-04T13:44:28;7.10;;;6.55;;
11620;SDS011;5866;49.094;11.900;2023-01-04T13:47:32;9.73;;;9.13;;
11620;SDS011;5866;49.094;11.900;2023-01-04T13:50:02;6.77;;;6.27;;
11620;SDS011;5866;49.094;11.900;2023-01-04T13:52:34;6.30;;;5.90;;
11620;SDS011;5866;49.094;11.900;2023-01-04T13:55:22;5.47;;;5.03;;
11620;SDS011;5866;49.094;11.900;2023-01-04T13:57:53;6.40;;;5.90;;
11620;SDS011;5866;49.094;11.900;2023-01-04T14:00:21;9.27;;;8.67;;
11620;SDS011;5866;49.094;11.900;2023-01-04T14:03:00;6.93;;;6.43;;
11620;SDS011;5866;49.094;11.900;2023-01-04T14:05:31;9.17;;;8.37;;
11620;SDS011;5866;49.094;11.900;2023-01-04T14:08:00;7.93;;;7.40;;
11620;SDS011;5866;49.094;11.900;2023-01-04T14:10:28;7.83;;;7.33;;
11620;SDS011;5866;49.094;11.900;2023-01-04T14:12:56;5.77;;;5.27;;
11620;SDS011;5866;49.094;11.900;2023-01-04T14:15:24;5.60;;;5.20;;
11620;SDS011;5866;49.094;11.900;2023-01-04T14:17:52;6.83;;;5.03;;
11620;SDS011;5866;49.094;11.900;2023-01-04T14:20:31;8.30;;;7.70;;
11620;SDS011;5866;49.094;11.900;2023-01-04T14:23:02;7.43;;;6.83;;
11620;SDS011;5866;49.094;11.900;2023-01-04T14:25:34;10.77;;;9.87;;
11620;SDS011;5866;49.094;11.900;2023-01-04T14:28:16;8.77;;;7.97;;
11620;SDS011;5866;49.094;11.900;2023-01-04T14:30:55;15.97;;;14.43;;
11620;SDS011;5866;49.094;11.900;2023-01-04T14:33:38;16.37;;;15.07;;
11620;SDS011;5866;49.094;11.900;2023-01-04T14:36:10;13.67;;;12.87;;
11620;SDS011;5866;49.094;11.900;2023-01-04T14:38:41;11.13;;;10.43;;
11620;SDS011;5866;49.094;11.900;2023-01-04T14:41:11;13.47;;;12.67;;
11620;SDS011;5866;49.094;11.900;2023-01-04T14:43:47;13.90;;;13.03;;
11620;SDS011;5866;49.094;11.900;2023-01-04T14:46:15;15.27;;;14.38;;
11620;SDS011;5866;49.094;11.900;2023-01-04T14:48:43;16.47;;;15.47;;
11620;SDS011;5866;49.094;11.900;2023-01-04T14:51:11;19.30;;;18.00;;
11620;SDS011;5866;49.094;11.900;2023-01-04T14:53:43;18.00;;;17.00;;
11620;SDS011;5866;49.094;11.900;2023-01-04T14:56:12;16.37;;;15.47;;
11620;SDS011;5866;49.094;11.900;2023-01-04T14:58:40;18.47;;;17.37;;
11620;SDS011;5866;49.094;11.900;2023-01-04T15:01:08;16.07;;;15.17;;
11620;SDS011;5866;49.094;11.900;2023-01-04T15:03:38;17.63;;;16.60;;
11620;SDS011;5866;49.094;11.900;2023-01-04T15:06:06;17.57;;;16.60;;
11620;SDS011;5866;49.094;11.900;2023-01-04T15:08:33;16.33;;;15.43;;
11620;SDS011;5866;49.094;11.900;2023-01-04T15:11:02;17.17;;;16.17;;
11620;SDS011;5866;49.094;11.900;2023-01-04T15:13:30;17.37;;;16.27;;